Time;durP1;ratioP1;P1;durP2;ratioP2;P2;SDS_P1;SDS_P2;PMS_P1;PMS_P2;Temp;Humidity;BMP_temperature;BMP_pressure;BME280_temperature;BME280_humidity;BME280_pressure;Samples;Min_cycle;Max_cycle;Signal;HPM_P1;HPM_P2
2022/07/28 00:00:58;;;;;;;;;;;;;;;21.23;71.83;99330.34;4929087;29;20021;-67
2022/07/28 00:03:24;;;;;;;;;;;;;;;21.19;71.63;99332.25;4930086;29;20378;-67
2022/07/28 00:05:50;;;;;;;;;;;;;;;21.18;71.50;99336.19;4931978;29;19962;-66
2022/07/28 00:08:16;;;;;;;;;;;;;;;21.16;70.83;99338.53;4928396;29;19931;-65
2022/07/28 00:10:41;;;;;;;;;;;;;;;21.13;70.44;99341.22;4926892;29;19941;-65
2022/07/28 00:13:08;;;;;;;;;;;;;;;21.10;70.00;99340.75;4930613;29;19966;-65
2022/07/28 00:15:34;;;;;;;;;;;;;;;21.09;69.84;99341.09;4930265;29;19935;-66
2022/07/28 00:18:04;;;;;;;;;;;;;;;21.13;69.88;99352.31;4917461;29;20469;-66
2022/07/28 00:20:31;;;;;;;;;;;;;;;21.13;69.81;99349.53;4931615;29;19962;-66
2022/07/28 00:23:00;;;;;;;;;;;;;;;21.14;69.38;99351.16;4912855;29;19954;-65
2022/07/28 00:25:26;;;;;;;;;;;;;;;21.15;69.03;99350.81;4916230;29;20342;-65
2022/07/28 00:27:53;;;;;;;;;;;;;;;21.16;68.96;99344.09;4928279;29;19941;-66
2022/07/28 00:30:21;;;;;;;;;;;;;;;21.18;68.72;99346.50;4914021;29;19931;-66
2022/07/28 00:32:47;;;;;;;;;;;;;;;21.18;68.57;99349.28;4926845;29;20026;-65
2022/07/28 00:35:14;;;;;;;;;;;;;;;21.11;68.13;99345.16;4931393;28;19931;-66
2022/07/28 00:37:41;;;;;;;;;;;;;;;21.08;67.63;99345.06;4905462;29;20473;-66
2022/07/28 00:40:10;;;;;;;;;;;;;;;21.09;68.30;99350.25;4913681;29;19931;-65
2022/07/28 00:42:36;;;;;;;;;;;;;;;21.09;68.30;99339.16;4920973;29;19938;-65
2022/07/28 00:45:04;;;;;;;;;;;;;;;21.07;68.51;99338.69;4936664;29;19930;-66
2022/07/28 00:47:32;;;;;;;;;;;;;;;21.08;68.71;99345.06;4930674;29;20373;-64
2022/07/28 00:50:00;;;;;;;;;;;;;;;21.09;69.14;99341.94;4928876;29;20378;-66
2022/07/28 00:52:27;;;;;;;;;;;;;;;21.10;68.98;99346.31;4934911;29;19938;-66
2022/07/28 00:54:54;;;;;;;;;;;;;;;21.09;69.17;99335.56;4933021;29;19931;-66
2022/07/28 00:57:20;;;;;;;;;;;;;;;21.08;68.90;99339.50;4931688;29;20402;-65
2022/07/28 00:59:46;;;;;;;;;;;;;;;21.06;69.08;99336.28;4930905;29;19931;-67
2022/07/28 01:02:14;;;;;;;;;;;;;;;21.00;69.42;99335.72;4933908;29;19926;-66
2022/07/28 01:04:42;;;;;;;;;;;;;;;20.99;69.51;99338.84;4928427;29;19932;-67
2022/07/28 01:07:14;;;;;;;;;;;;;;;20.96;69.53;99340.38;4928683;29;19931;-65
2022/07/28 01:09:49;;;;;;;;;;;;;;;20.95;69.95;99339.56;4914809;29;20413;-66
2022/07/28 01:12:33;;;;;;;;;;;;;;;20.93;69.94;99349.44;4929312;29;19931;-66
2022/07/28 01:15:05;;;;;;;;;;;;;;;20.91;70.08;99348.97;4922778;29;20262;-66
2022/07/28 01:17:35;;;;;;;;;;;;;;;20.87;70.20;99345.28;4934995;29;19935;-66
2022/07/28 01:20:05;;;;;;;;;;;;;;;20.82;70.04;99338.84;4916215;29;19931;-64
2022/07/28 01:22:33;;;;;;;;;;;;;;;20.80;70.64;99332.84;4931979;29;19935;-66
2022/07/28 01:25:06;;;;;;;;;;;;;;;20.81;70.79;99336.41;4934528;29;19938;-65
2022/07/28 01:27:37;;;;;;;;;;;;;;;20.79;70.78;99338.69;4931303;29;19930;-65
2022/07/28 01:30:26;;;;;;;;;;;;;;;20.78;71.04;99334.31;4937320;29;19931;-66
2022/07/28 01:32:56;;;;;;;;;;;;;;;20.78;71.60;99332.34;4932746;29;19966;-65
2022/07/28 01:35:25;;;;;;;;;;;;;;;20.79;71.89;99335.94;4930654;29;19931;-66
2022/07/28 01:37:53;;;;;;;;;;;;;;;20.78;72.14;99329.56;4932122;29;19931;-65
2022/07/28 01:40:21;;;;;;;;;;;;;;;20.79;71.92;99328.41;4932065;29;19938;-64
2022/07/28 01:42:48;;;;;;;;;;;;;;;20.80;72.05;99323.66;4925791;29;19931;-65
2022/07/28 01:45:15;;;;;;;;;;;;;;;20.80;72.40;99331.97;4929294;29;19931;-66
2022/07/28 01:47:43;;;;;;;;;;;;;;;20.80;72.33;99335.59;4928842;29;20470;-66
2022/07/28 01:50:10;;;;;;;;;;;;;;;20.82;72.40;99329.69;4911331;29;19931;-65
2022/07/28 01:52:36;;;;;;;;;;;;;;;20.82;72.34;99324.94;4910808;29;20520;-65
2022/07/28 01:55:02;;;;;;;;;;;;;;;20.81;72.59;99319.72;4908507;29;19931;-65
2022/07/28 01:57:30;;;;;;;;;;;;;;;20.80;72.79;99316.16;4916590;29;20337;-65
2022/07/28 01:59:57;;;;;;;;;;;;;;;20.80;72.76;99323.66;4929719;29;20516;-65
2022/07/28 02:02:23;;;;;;;;;;;;;;;20.78;72.85;99326.81;4931344;29;19935;-65
2022/07/28 02:04:51;;;;;;;;;;;;;;;20.79;73.15;99327.59;4933322;29;19931;-66
2022/07/28 02:07:19;;;;;;;;;;;;;;;20.80;72.70;99324.50;4933154;29;19941;-65
2022/07/28 02:09:46;;;;;;;;;;;;;;;20.85;72.72;99320.66;4928625;29;20049;-64
2022/07/28 02:12:12;;;;;;;;;;;;;;;20.89;72.51;99324.34;4930423;29;20504;-64
2022/07/28 02:14:38;;;;;;;;;;;;;;;20.93;72.29;99319.66;4932354;29;20033;-65
2022/07/28 02:17:08;;;;;;;;;;;;;;;20.94;72.58;99317.72;4945149;28;20045;-65
2022/07/28 02:19:36;;;;;;;;;;;;;;;20.96;72.59;99323.72;4932857;29;19931;-65
2022/07/28 02:22:04;;;;;;;;;;;;;;;20.99;72.64;99324.94;4931580;29;19930;-65
2022/07/28 02:24:30;;;;;;;;;;;;;;;21.00;72.49;99324.59;4929850;29;19931;-65
2022/07/28 02:26:58;;;;;;;;;;;;;;;21.04;72.30;99330.25;4932076;28;19935;-65
2022/07/28 02:29:25;;;;;;;;;;;;;;;21.08;72.14;99325.59;4931881;29;19941;-64
2022/07/28 02:31:53;;;;;;;;;;;;;;;21.13;71.98;99330.88;4932320;29;20240;-65
2022/07/28 02:34:20;;;;;;;;;;;;;;;21.19;72.21;99328.66;4929158;29;19931;-65
2022/07/28 02:36:49;;;;;;;;;;;;;;;21.28;71.74;99329.28;4931086;28;19937;-66
2022/07/28 02:39:20;;;;;;;;;;;;;;;21.38;71.20;99325.94;4928908;29;19993;-65
2022/07/28 02:41:50;;;;;;;;;;;;;;;21.46;70.82;99324.16;4929638;29;19931;-64
2022/07/28 02:44:18;;;;;;;;;;;;;;;21.51;70.81;99331.41;4932169;29;20394;-65
2022/07/28 02:46:45;;;;;;;;;;;;;;;21.56;70.67;99335.91;4930922;29;20005;-65
2022/07/28 02:49:15;;;;;;;;;;;;;;;21.58;70.35;99334.38;4930900;29;19950;-65
2022/07/28 02:51:42;;;;;;;;;;;;;;;21.62;70.37;99338.03;4932392;29;19985;-65
2022/07/28 02:54:08;;;;;;;;;;;;;;;21.65;70.07;99337.34;4931487;29;20407;-65
2022/07/28 02:56:36;;;;;;;;;;;;;;;21.68;69.92;99338.59;4929902;29;20457;-64
2022/07/28 02:59:03;;;;;;;;;;;;;;;21.71;70.05;99332.31;4932207;29;19931;-65
2022/07/28 03:01:29;;;;;;;;;;;;;;;21.74;70.38;99336.34;4947478;29;19931;-64
2022/07/28 03:03:55;;;;;;;;;;;;;;;21.77;70.21;99338.41;4929428;29;19931;-67
2022/07/28 03:06:22;;;;;;;;;;;;;;;21.83;70.03;99339.72;4929336;29;19934;-67
2022/07/28 03:08:49;;;;;;;;;;;;;;;21.91;69.92;99337.91;4930541;29;19931;-64
2022/07/28 03:11:15;;;;;;;;;;;;;;;22.04;69.51;99342.19;4930761;29;19943;-67
2022/07/28 03:13:42;;;;;;;;;;;;;;;22.17;69.38;99339.28;4931435;29;19956;-64
2022/07/28 03:16:08;;;;;;;;;;;;;;;22.27;68.97;99343.47;4930158;29;19930;-65
2022/07/28 03:18:34;;;;;;;;;;;;;;;22.37;68.86;99343.69;4931053;29;19941;-66
2022/07/28 03:21:00;;;;;;;;;;;;;;;22.46;68.54;99351.03;4932182;29;19931;-65
2022/07/28 03:23:28;;;;;;;;;;;;;;;22.51;68.33;99351.56;4926240;29;20357;-64
2022/07/28 03:25:56;;;;;;;;;;;;;;;22.54;67.80;99354.78;4927689;28;19981;-66
2022/07/28 03:28:22;;;;;;;;;;;;;;;22.53;67.92;99351.19;4926547;29;19938;-65
2022/07/28 03:30:53;;;;;;;;;;;;;;;22.52;68.17;99355.97;4929566;29;20202;-65
2022/07/28 03:33:18;;;;;;;;;;;;;;;22.55;68.33;99348.84;4930113;29;20434;-64
2022/07/28 03:35:47;;;;;;;;;;;;;;;22.66;67.74;99351.84;4929674;29;19939;-63
2022/07/28 03:38:14;;;;;;;;;;;;;;;22.80;67.36;99351.31;4929070;29;20524;-65
2022/07/28 03:40:41;;;;;;;;;;;;;;;22.66;67.32;99332.34;4931305;29;19978;-65
2022/07/28 03:43:08;;;;;;;;;;;;;;;22.89;67.19;99360.25;4932003;29;19931;-66
2022/07/28 03:45:34;;;;;;;;;;;;;;;23.00;67.09;99354.88;4930237;29;19982;-65
2022/07/28 03:48:02;;;;;;;;;;;;;;;23.09;66.78;99352.66;4930049;29;20063;-65
2022/07/28 03:50:28;;;;;;;;;;;;;;;23.17;66.58;99347.22;4928111;29;20212;-65
2022/07/28 03:52:54;;;;;;;;;;;;;;;23.17;67.01;99355.56;4929110;29;19934;-67
2022/07/28 03:55:20;;;;;;;;;;;;;;;23.08;67.34;99361.41;4946001;28;19930;-66
2022/07/28 03:57:46;;;;;;;;;;;;;;;22.96;67.56;99356.81;4930235;28;19931;-66
2022/07/28 04:00:13;;;;;;;;;;;;;;;22.91;67.72;99362.66;4929468;29;19931;-66
2022/07/28 04:02:45;;;;;;;;;;;;;;;22.91;67.72;99357.91;4931238;29;19930;-65
2022/07/28 04:05:13;;;;;;;;;;;;;;;23.05;67.31;99354.56;4928426;29;19988;-66
2022/07/28 04:07:39;;;;;;;;;;;;;;;23.25;66.50;99360.09;4928401;29;20406;-65
2022/07/28 04:10:06;;;;;;;;;;;;;;;23.40;65.87;99357.56;4927819;29;20311;-66
2022/07/28 04:12:43;;;;;;;;;;;;;;;23.60;65.54;99363.88;4926969;29;19941;-68
2022/07/28 04:15:11;;;;;;;;;;;;;;;23.77;64.55;99363.34;4930382;29;20394;-66
2022/07/28 04:17:36;;;;;;;;;;;;;;;23.90;64.36;99355.59;4930560;29;20291;-66
2022/07/28 04:20:02;;;;;;;;;;;;;;;24.07;63.90;99356.25;4930876;29;19931;-67
2022/07/28 04:22:30;;;;;;;;;;;;;;;24.20;63.16;99348.44;4932545;29;20385;-66
2022/07/28 04:24:56;;;;;;;;;;;;;;;24.20;62.99;99357.63;4931044;29;19930;-67
2022/07/28 04:27:22;;;;;;;;;;;;;;;24.02;63.65;99351.78;4930434;29;19931;-65
2022/07/28 04:29:47;;;;;;;;;;;;;;;23.92;64.09;99352.41;4927470;29;20362;-67
2022/07/28 04:32:13;;;;;;;;;;;;;;;23.80;64.57;99350.63;4930369;29;20365;-67
2022/07/28 04:34:39;;;;;;;;;;;;;;;23.73;64.83;99348.53;4931016;29;19931;-67
2022/07/28 04:37:04;;;;;;;;;;;;;;;23.65;64.80;99344.84;4928911;29;19935;-67
2022/07/28 04:39:31;;;;;;;;;;;;;;;23.64;64.66;99343.22;4927953;29;20395;-66
2022/07/28 04:41:57;;;;;;;;;;;;;;;23.60;64.58;99349.94;4942981;29;19931;-66
2022/07/28 04:44:23;;;;;;;;;;;;;;;23.67;64.28;99358.44;4929008;29;19934;-66
2022/07/28 04:46:49;;;;;;;;;;;;;;;23.78;63.43;99353.00;4928825;29;20262;-66
2022/07/28 04:49:14;;;;;;;;;;;;;;;23.89;62.79;99356.78;4943828;29;19931;-65
2022/07/28 04:51:40;;;;;;;;;;;;;;;23.98;62.82;99361.25;4929713;29;20322;-67
2022/07/28 04:54:06;;;;;;;;;;;;;;;24.05;62.32;99364.97;4928629;29;19930;-66
2022/07/28 04:56:33;;;;;;;;;;;;;;;24.14;62.57;99359.13;4926962;29;19931;-65
2022/07/28 04:59:00;;;;;;;;;;;;;;;24.19;62.82;99356.00;4927945;28;20278;-65
2022/07/28 05:01:27;;;;;;;;;;;;;;;24.19;62.68;99364.38;4930876;29;19931;-66
2022/07/28 05:03:53;;;;;;;;;;;;;;;24.15;62.83;99351.56;4941681;29;20319;-67
2022/07/28 05:06:18;;;;;;;;;;;;;;;24.16;62.44;99367.13;4946271;28;19930;-67
2022/07/28 05:08:44;;;;;;;;;;;;;;;24.24;62.23;99362.44;4926445;29;19931;-66
2022/07/28 05:11:10;;;;;;;;;;;;;;;24.31;61.55;99366.13;4908490;29;20410;-66
2022/07/28 05:13:37;;;;;;;;;;;;;;;24.40;60.87;99368.66;4910334;29;20395;-66
2022/07/28 05:16:02;;;;;;;;;;;;;;;24.54;60.45;99370.00;4909677;29;19966;-66
2022/07/28 05:18:28;;;;;;;;;;;;;;;24.66;60.23;99363.34;4911839;29;20038;-67
2022/07/28 05:20:54;;;;;;;;;;;;;;;24.77;59.49;99370.69;4922273;29;20034;-67
2022/07/28 05:23:20;;;;;;;;;;;;;;;24.85;59.23;99356.81;4942638;28;20390;-66
2022/07/28 05:25:45;;;;;;;;;;;;;;;24.87;58.94;99363.63;4930686;29;19931;-67
2022/07/28 05:28:11;;;;;;;;;;;;;;;24.90;58.53;99365.66;4930091;29;20329;-66
2022/07/28 05:30:38;;;;;;;;;;;;;;;24.95;58.56;99361.69;4928505;29;19978;-66
2022/07/28 05:33:04;;;;;;;;;;;;;;;25.06;58.17;99362.63;4930948;29;19935;-65
2022/07/28 05:35:29;;;;;;;;;;;;;;;25.15;58.07;99367.91;4928122;28;20072;-66
2022/07/28 05:37:55;;;;;;;;;;;;;;;25.23;57.55;99365.97;4931827;29;20390;-66
2022/07/28 05:40:21;;;;;;;;;;;;;;;25.26;57.64;99367.19;4930584;29;19931;-67
2022/07/28 05:42:47;;;;;;;;;;;;;;;25.27;56.97;99369.59;4932308;29;20033;-67
2022/07/28 05:45:13;;;;;;;;;;;;;;;25.25;56.21;99360.78;4934343;29;20363;-66
2022/07/28 05:47:41;;;;;;;;;;;;;;;25.33;56.18;99367.25;4936302;29;20399;-67
2022/07/28 05:50:08;;;;;;;;;;;;;;;25.37;56.04;99370.91;4915248;29;19931;-67
2022/07/28 05:52:33;;;;;;;;;;;;;;;25.46;56.03;99367.78;4925405;29;19931;-67
2022/07/28 05:54:59;;;;;;;;;;;;;;;25.60;55.40;99367.09;4934972;29;19930;-66
2022/07/28 05:57:25;;;;;;;;;;;;;;;25.74;54.51;99374.78;4935095;29;20461;-66
2022/07/28 05:59:51;;;;;;;;;;;;;;;25.74;54.80;99366.41;4949649;29;20366;-67
2022/07/28 06:02:16;;;;;;;;;;;;;;;25.88;54.49;99369.31;4931606;29;19930;-67
2022/07/28 06:04:43;;;;;;;;;;;;;;;25.97;54.94;99380.16;4932899;29;20358;-67
2022/07/28 06:07:09;;;;;;;;;;;;;;;26.01;54.85;99369.81;4929834;29;20296;-67
2022/07/28 06:09:35;;;;;;;;;;;;;;;26.13;54.88;99374.25;4920928;29;20468;-65
2022/07/28 06:12:01;;;;;;;;;;;;;;;26.30;54.12;99367.19;4917092;29;19931;-67
2022/07/28 06:14:26;;;;;;;;;;;;;;;26.41;54.10;99363.63;4934498;29;19989;-65
2022/07/28 06:16:52;;;;;;;;;;;;;;;26.53;54.15;99370.84;4932277;29;20355;-66
2022/07/28 06:19:18;;;;;;;;;;;;;;;26.60;53.65;99371.69;4932828;29;19931;-66
2022/07/28 06:21:46;;;;;;;;;;;;;;;26.58;54.06;99368.47;4919166;29;19931;-65
2022/07/28 06:24:12;;;;;;;;;;;;;;;26.86;53.02;99369.03;4913431;29;19934;-67
2022/07/28 06:26:38;;;;;;;;;;;;;;;27.03;52.38;99373.88;4916656;29;19931;-65
2022/07/28 06:29:05;;;;;;;;;;;;;;;27.43;51.30;99385.13;4926474;29;19935;-66
2022/07/28 06:31:30;;;;;;;;;;;;;;;27.87;49.93;99379.53;4919636;29;20013;-65
2022/07/28 06:33:56;;;;;;;;;;;;;;;28.14;48.76;99363.00;4920839;29;19976;-66
2022/07/28 06:36:22;;;;;;;;;;;;;;;28.25;48.34;99363.00;4922807;29;19938;-65
2022/07/28 06:38:49;;;;;;;;;;;;;;;28.21;48.01;99362.22;4925491;29;19931;-65
2022/07/28 06:41:15;;;;;;;;;;;;;;;28.14;47.88;99370.63;4921392;29;19953;-66
2022/07/28 06:43:40;;;;;;;;;;;;;;;28.15;48.19;99358.16;4922539;29;21312;-65
2022/07/28 06:46:06;;;;;;;;;;;;;;;28.19;48.21;99364.63;4924840;29;19941;-64
2022/07/28 06:48:32;;;;;;;;;;;;;;;28.01;49.07;99364.63;4920245;29;19931;-66
2022/07/28 06:50:58;;;;;;;;;;;;;;;27.80;49.28;99362.66;4928179;29;20029;-65
2022/07/28 06:53:24;;;;;;;;;;;;;;;27.81;49.28;99367.88;4927335;29;19950;-64
2022/07/28 06:55:51;;;;;;;;;;;;;;;27.53;49.55;99366.72;4925270;29;20007;-65
2022/07/28 06:58:17;;;;;;;;;;;;;;;27.16;50.23;99374.28;4922057;29;19930;-66
2022/07/28 07:00:42;;;;;;;;;;;;;;;27.22;50.60;99366.25;4922350;29;19931;-65
2022/07/28 07:03:08;;;;;;;;;;;;;;;27.45;49.96;99376.28;4922482;29;20534;-66
2022/07/28 07:05:34;;;;;;;;;;;;;;;27.56;49.32;99373.53;4922333;29;19935;-67
2022/07/28 07:08:00;;;;;;;;;;;;;;;27.69;48.74;99369.09;4923312;29;19937;-67
2022/07/28 07:10:25;;;;;;;;;;;;;;;27.93;48.45;99369.47;4918995;29;19935;-66
2022/07/28 07:12:52;;;;;;;;;;;;;;;28.13;47.87;99363.41;4915313;29;20506;-65
2022/07/28 07:15:18;;;;;;;;;;;;;;;28.22;47.60;99371.44;4939178;29;20366;-65
2022/07/28 07:17:44;;;;;;;;;;;;;;;28.18;47.60;99363.03;4918256;29;20398;-67
2022/07/28 07:20:12;;;;;;;;;;;;;;;28.20;47.25;99363.41;4916404;29;21336;-67
2022/07/28 07:22:41;;;;;;;;;;;;;;;28.02;47.61;99367.06;4910869;29;19930;-65
2022/07/28 07:25:08;;;;;;;;;;;;;;;28.16;47.71;99371.84;4914943;29;19937;-65
2022/07/28 07:27:33;;;;;;;;;;;;;;;28.42;45.94;99368.94;4921129;29;19986;-65
2022/07/28 07:30:00;;;;;;;;;;;;;;;28.53;45.17;99374.53;4918441;29;20344;-67
2022/07/28 07:32:26;;;;;;;;;;;;;;;28.65;45.64;99360.00;4924447;29;19931;-67
2022/07/28 07:34:54;;;;;;;;;;;;;;;28.64;44.54;99344.34;4913722;29;19937;-66
2022/07/28 07:37:20;;;;;;;;;;;;;;;28.91;44.40;99357.91;4910913;29;19945;-65
2022/07/28 07:39:46;;;;;;;;;;;;;;;29.07;44.24;99357.38;4923094;29;19941;-65
2022/07/28 07:42:12;;;;;;;;;;;;;;;29.22;44.29;99354.47;4919789;29;20010;-65
2022/07/28 07:44:38;;;;;;;;;;;;;;;29.29;43.65;99357.22;4919590;29;20307;-65
2022/07/28 07:47:07;;;;;;;;;;;;;;;29.28;44.07;99356.41;4921304;29;20471;-66
2022/07/28 07:49:32;;;;;;;;;;;;;;;29.42;43.23;99363.97;4911508;29;19931;-67
2022/07/28 07:51:58;;;;;;;;;;;;;;;29.43;43.54;99362.78;4916002;29;19930;-65
2022/07/28 07:54:42;;;;;;;;;;;;;;;29.56;43.48;99363.06;4920746;29;19934;-66
2022/07/28 07:57:08;;;;;;;;;;;;;;;29.66;43.32;99383.06;4924838;29;20300;-67
2022/07/28 07:59:34;;;;;;;;;;;;;;;29.36;43.11;99371.25;4922461;29;19931;-66
2022/07/28 08:02:00;;;;;;;;;;;;;;;29.29;43.65;99366.47;4918873;29;20502;-65
2022/07/28 08:04:27;;;;;;;;;;;;;;;29.42;43.12;99363.19;4918139;29;19931;-65
2022/07/28 08:06:53;;;;;;;;;;;;;;;29.57;43.01;99364.66;4923878;29;19993;-66
2022/07/28 08:09:18;;;;;;;;;;;;;;;29.81;42.58;99364.81;4922220;29;20586;-65
2022/07/28 08:11:44;;;;;;;;;;;;;;;30.24;41.73;99348.72;4921185;29;20042;-65
2022/07/28 08:14:10;;;;;;;;;;;;;;;30.64;40.88;99357.50;4922323;29;19953;-65
2022/07/28 08:16:36;;;;;;;;;;;;;;;31.08;40.29;99343.56;4921910;29;19935;-64
2022/07/28 08:19:02;;;;;;;;;;;;;;;31.63;39.28;99346.34;4925036;29;19931;-65
2022/07/28 08:21:29;;;;;;;;;;;;;;;32.02;38.52;99341.19;4927997;29;19946;-65
2022/07/28 08:23:56;;;;;;;;;;;;;;;32.47;37.78;99344.75;4919737;29;19937;-65
2022/07/28 08:26:22;;;;;;;;;;;;;;;32.27;37.35;99334.22;4919919;29;19937;-65
2022/07/28 08:28:48;;;;;;;;;;;;;;;32.08;38.20;99336.63;4916825;29;19931;-65
2022/07/28 08:31:19;;;;;;;;;;;;;;;32.24;37.64;99326.63;4913077;29;20413;-65
2022/07/28 08:33:45;;;;;;;;;;;;;;;32.52;37.61;99322.41;4916652;29;20382;-65
2022/07/28 08:36:11;;;;;;;;;;;;;;;32.77;36.66;99320.25;4923283;29;19970;-65
2022/07/28 08:38:38;;;;;;;;;;;;;;;33.24;35.97;99302.19;4915073;29;19972;-67
2022/07/28 08:41:06;;;;;;;;;;;;;;;33.56;35.56;99306.25;4916837;29;19938;-65
2022/07/28 08:43:33;;;;;;;;;;;;;;;33.52;35.27;99300.66;4915291;29;19941;-65
2022/07/28 08:46:00;;;;;;;;;;;;;;;33.45;35.41;99291.56;4915112;29;20371;-67
2022/07/28 08:48:28;;;;;;;;;;;;;;;33.34;35.16;99286.97;4927920;29;19939;-67
2022/07/28 08:50:55;;;;;;;;;;;;;;;33.64;34.82;99275.69;4914321;29;19935;-67
2022/07/28 08:53:21;;;;;;;;;;;;;;;33.94;34.64;99260.25;4922551;29;19994;-66
2022/07/28 08:55:49;;;;;;;;;;;;;;;34.29;34.06;99276.69;4928197;29;19931;-67
2022/07/28 08:58:16;;;;;;;;;;;;;;;33.06;35.54;99291.28;4937001;29;19935;-65
2022/07/28 09:00:42;;;;;;;;;;;;;;;31.56;37.96;99309.72;4904832;29;19955;-67
2022/07/28 09:03:09;;;;;;;;;;;;;;;30.51;40.11;99325.41;4905016;29;19935;-66
2022/07/28 09:05:35;;;;;;;;;;;;;;;29.99;40.88;99333.66;4909090;29;20029;-67
2022/07/28 09:08:01;;;;;;;;;;;;;;;29.43;42.61;99325.38;4914287;29;20387;-67
2022/07/28 09:10:28;;;;;;;;;;;;;;;28.86;44.93;99327.38;4926831;29;19938;-67
2022/07/28 09:12:55;;;;;;;;;;;;;;;27.11;49.31;99326.16;4905468;29;19931;-67
2022/07/28 09:15:21;;;;;;;;;;;;;;;26.13;51.71;99312.63;4920833;29;20054;-67
2022/07/28 09:17:46;;;;;;;;;;;;;;;25.95;52.98;99306.16;4920301;29;20495;-65
2022/07/28 09:20:12;;;;;;;;;;;;;;;25.86;53.73;99314.91;4925159;29;19931;-65
2022/07/28 09:22:53;;;;;;;;;;;;;;;25.83;53.99;99326.88;4922452;29;20143;-65
2022/07/28 09:25:18;;;;;;;;;;;;;;;26.11;53.16;99320.63;4908243;29;19937;-66
2022/07/28 09:27:44;;;;;;;;;;;;;;;26.44;52.08;99340.41;4921589;29;19935;-66
2022/07/28 09:30:11;;;;;;;;;;;;;;;26.67;51.74;99334.47;4900652;29;20425;-65
2022/07/28 09:32:38;;;;;;;;;;;;;;;26.80;51.29;99337.72;4904872;29;20029;-66
2022/07/28 09:35:16;;;;;;;;;;;;;;;26.86;51.13;99330.56;4917316;29;19939;-65
2022/07/28 09:37:42;;;;;;;;;;;;;;;26.91;50.48;99323.75;4921291;29;20477;-65
2022/07/28 09:40:09;;;;;;;;;;;;;;;26.97;49.63;99324.94;4933693;29;19963;-66
2022/07/28 09:42:44;;;;;;;;;;;;;;;27.01;49.46;99313.75;4908109;29;20450;-65
2022/07/28 09:45:10;;;;;;;;;;;;;;;27.21;49.16;99316.16;4905926;29;19931;-65
2022/07/28 09:47:39;;;;;;;;;;;;;;;27.48;48.98;99301.72;4905916;29;19954;-66
2022/07/28 09:50:05;;;;;;;;;;;;;;;27.59;49.29;99296.94;4901923;29;19991;-65
2022/07/28 09:52:32;;;;;;;;;;;;;;;27.96;48.68;99287.19;4921637;29;19982;-65
2022/07/28 09:54:59;;;;;;;;;;;;;;;28.40;47.00;99287.84;4925412;29;19938;-67
2022/07/28 09:57:25;;;;;;;;;;;;;;;29.06;45.86;99287.47;4910102;29;19941;-66
2022/07/28 09:59:51;;;;;;;;;;;;;;;29.73;44.22;99287.28;4918564;29;19931;-66
2022/07/28 10:02:22;;;;;;;;;;;;;;;30.68;41.15;99293.38;4903233;29;20234;-65
2022/07/28 10:04:49;;;;;;;;;;;;;;;31.41;39.76;99286.59;4921260;29;19961;-67
2022/07/28 10:07:18;;;;;;;;;;;;;;;32.31;37.66;99286.88;4922537;29;20030;-66
2022/07/28 10:09:54;;;;;;;;;;;;;;;33.36;34.33;99295.00;4928895;29;20315;-67
2022/07/28 10:12:21;;;;;;;;;;;;;;;34.08;33.53;99301.59;4928096;29;19931;-67
2022/07/28 10:14:47;;;;;;;;;;;;;;;34.99;32.36;99292.41;4922738;29;19931;-67
2022/07/28 10:17:23;;;;;;;;;;;;;;;35.52;30.27;99291.03;4910826;29;19937;-67
2022/07/28 10:19:50;;;;;;;;;;;;;;;36.32;28.94;99297.53;4911090;29;19931;-66
2022/07/28 10:22:16;;;;;;;;;;;;;;;36.65;27.62;99299.94;4911741;29;20395;-66
2022/07/28 10:24:43;;;;;;;;;;;;;;;36.28;27.93;99305.38;4929301;29;19930;-67
2022/07/28 10:27:08;;;;;;;;;;;;;;;35.78;28.43;99300.28;4917804;29;20391;-67
2022/07/28 10:29:34;;;;;;;;;;;;;;;34.39;30.18;99293.84;4929834;29;19938;-68
2022/07/28 10:32:04;;;;;;;;;;;;;;;33.36;32.02;99297.81;4932375;29;20162;-65
2022/07/28 10:34:32;;;;;;;;;;;;;;;32.83;33.06;99298.69;4923267;28;20006;-66
2022/07/28 10:37:01;;;;;;;;;;;;;;;32.66;33.79;99303.53;4915673;29;19939;-66
2022/07/28 10:39:28;;;;;;;;;;;;;;;32.09;34.70;99306.34;4917092;29;19937;-67
2022/07/28 10:41:55;;;;;;;;;;;;;;;31.33;36.20;99311.34;4920945;29;19938;-66
2022/07/28 10:44:21;;;;;;;;;;;;;;;30.65;37.58;99319.63;4929262;29;20421;-67
2022/07/28 10:46:48;;;;;;;;;;;;;;;29.97;39.18;99321.19;4922831;29;19931;-67
2022/07/28 10:49:14;;;;;;;;;;;;;;;29.55;40.35;99322.03;4924955;29;19935;-67
2022/07/28 10:51:41;;;;;;;;;;;;;;;29.36;41.00;99322.59;4913259;29;19937;-66
2022/07/28 10:54:11;;;;;;;;;;;;;;;29.29;41.42;99326.28;4913578;29;19979;-66
2022/07/28 10:56:42;;;;;;;;;;;;;;;29.22;41.86;99320.69;4913788;29;19931;-67
2022/07/28 10:59:14;;;;;;;;;;;;;;;29.07;43.09;99336.91;4917838;29;19963;-66
2022/07/28 11:01:40;;;;;;;;;;;;;;;28.50;44.64;99352.84;4913110;29;19935;-66
2022/07/28 11:04:06;;;;;;;;;;;;;;;28.15;45.61;99353.38;4924647;29;19938;-66
2022/07/28 11:06:38;;;;;;;;;;;;;;;27.78;46.56;99371.47;4926783;29;20403;-67
2022/07/28 11:09:21;;;;;;;;;;;;;;;27.43;48.73;99384.31;4916623;29;19935;-65
2022/07/28 11:11:51;;;;;;;;;;;;;;;27.08;50.65;99389.47;4910118;29;19935;-66
2022/07/28 11:14:33;;;;;;;;;;;;;;;26.82;50.54;99383.00;4911773;29;20030;-67
2022/07/28 11:17:19;;;;;;;;;;;;;;;26.57;52.15;99380.88;4921345;29;19930;-66
2022/07/28 11:19:52;;;;;;;;;;;;;;;26.21;53.94;99396.72;4926445;29;19931;-66
2022/07/28 11:22:27;;;;;;;;;;;;;;;25.85;53.74;99380.50;4916728;29;20412;-66
2022/07/28 11:25:11;;;;;;;;;;;;;;;25.52;52.99;99380.25;4911747;29;19930;-65
2022/07/28 11:27:55;;;;;;;;;;;;;;;25.34;52.00;99400.44;4914245;29;19931;-65
2022/07/28 11:30:39;;;;;;;;;;;;;;;25.25;52.69;99390.75;4924984;29;19933;-65
2022/07/28 11:33:05;;;;;;;;;;;;;;;25.12;51.75;99387.44;4922867;29;19983;-65
2022/07/28 11:35:51;;;;;;;;;;;;;;;24.92;51.27;99402.44;4912933;29;20393;-64
2022/07/28 11:38:17;;;;;;;;;;;;;;;24.64;51.21;99397.25;4913470;29;20427;-66
2022/07/28 11:40:45;;;;;;;;;;;;;;;24.56;51.82;99381.59;4924580;29;19937;-65
2022/07/28 11:43:30;;;;;;;;;;;;;;;24.53;51.78;99352.44;4929500;29;19931;-65
2022/07/28 11:46:29;;;;;;;;;;;;;;;24.58;52.55;99340.91;4916108;29;19937;-65
2022/07/28 11:49:09;;;;;;;;;;;;;;;24.55;53.09;99344.47;4909261;29;19935;-65
2022/07/28 11:51:35;;;;;;;;;;;;;;;24.21;57.59;99336.88;4923365;29;19954;-65
2022/07/28 11:54:01;;;;;;;;;;;;;;;22.80;65.50;99301.16;4915047;29;20395;-64
2022/07/28 11:56:34;;;;;;;;;;;;;;;21.68;71.83;99316.34;4909896;29;20414;-63
2022/07/28 11:59:01;;;;;;;;;;;;;;;20.97;73.87;99328.09;4910877;29;19931;-64
2022/07/28 12:01:27;;;;;;;;;;;;;;;20.85;73.89;99329.00;4912688;29;19995;-65
2022/07/28 12:03:53;;;;;;;;;;;;;;;20.90;73.71;99342.63;4926650;29;19931;-66
2022/07/28 12:06:19;;;;;;;;;;;;;;;21.08;72.45;99311.72;4925494;29;19930;-65
2022/07/28 12:08:48;;;;;;;;;;;;;;;21.37;71.40;99331.88;4916697;29;19931;-65
2022/07/28 12:11:14;;;;;;;;;;;;;;;21.67;69.90;99317.53;4918374;29;19982;-65
2022/07/28 12:13:42;;;;;;;;;;;;;;;21.92;68.21;99318.09;4915860;29;19931;-66
2022/07/28 12:16:07;;;;;;;;;;;;;;;22.18;67.43;99291.59;4918688;29;19931;-65
2022/07/28 12:18:33;;;;;;;;;;;;;;;22.64;65.01;99312.44;4917907;29;19946;-66
2022/07/28 12:20:59;;;;;;;;;;;;;;;23.00;64.30;99321.44;4912658;29;20045;-66
2022/07/28 12:23:29;;;;;;;;;;;;;;;23.27;63.45;99318.75;4921409;29;19934;-66
2022/07/28 12:25:54;;;;;;;;;;;;;;;23.43;61.84;99318.59;4925911;29;19941;-67
2022/07/28 12:28:21;;;;;;;;;;;;;;;23.52;61.42;99321.13;4929644;29;20032;-66
2022/07/28 12:30:50;;;;;;;;;;;;;;;23.50;60.55;99323.47;4929553;29;20031;-67
2022/07/28 12:33:17;;;;;;;;;;;;;;;23.55;60.20;99323.16;4917237;29;19959;-64
2022/07/28 12:35:43;;;;;;;;;;;;;;;23.56;60.28;99315.59;4921011;29;19930;-66
2022/07/28 12:38:09;;;;;;;;;;;;;;;23.57;60.66;99301.28;4912962;29;19931;-65
2022/07/28 12:40:38;;;;;;;;;;;;;;;23.57;60.87;99298.50;4917466;29;19939;-66
2022/07/28 12:43:04;;;;;;;;;;;;;;;23.58;61.24;99296.50;4936383;29;20481;-64
2022/07/28 12:45:32;;;;;;;;;;;;;;;23.50;61.49;99290.81;4933648;28;19931;-65
2022/07/28 12:48:05;;;;;;;;;;;;;;;23.49;61.85;99291.19;4919167;29;20241;-64
2022/07/28 12:50:36;;;;;;;;;;;;;;;23.50;62.09;99285.25;4920089;29;19931;-64